Terminal Aerodrome Forecast
Issued by NWS Wilmington, NC

Home | Current Version | Previous Version | Text Only | Print | Product List | Glossary On
Versions: 1 2 3 4 5 6 7 8 9 10 11 12 13 14 15 16 17
000
FTUS42 KILM 291730
TAFMYR
TAF
KMYR 291730Z 2918/3018 03009KT P6SM SCT035 BKN250
     FM300200 08006KT P6SM BKN250
     FM300600 VRB04KT P6SM BKN050
     FM301200 27002KT P6SM VCSH BKN050=

USA.gov is the U.S. government's official web portal to all federal, state and local government web resources and services.